sensor_id;sensor_type;location;lat;lon;timestamp;temperature;humidity
60860;DHT22;46694;54.382;9.708;2023-08-07T00:00:54;15.90;99.90
60860;DHT22;46694;54.382;9.708;2023-08-07T00:03:33;15.90;99.90
60860;DHT22;46694;54.382;9.708;2023-08-07T00:06:14;15.90;99.90
60860;DHT22;46694;54.382;9.708;2023-08-07T00:08:54;15.90;99.90
60860;DHT22;46694;54.382;9.708;2023-08-07T00:11:34;15.90;99.90
60860;DHT22;46694;54.382;9.708;2023-08-07T00:14:13;15.80;99.90
60860;DHT22;46694;54.382;9.708;2023-08-07T00:16:53;15.80;99.90
60860;DHT22;46694;54.382;9.708;2023-08-07T00:19:33;15.80;99.90
60860;DHT22;46694;54.382;9.708;2023-08-07T00:22:13;15.80;99.90
60860;DHT22;46694;54.382;9.708;2023-08-07T00:24:53;15.70;99.90
60860;DHT22;46694;54.382;9.708;2023-08-07T00:27:32;15.70;99.90
60860;DHT22;46694;54.382;9.708;2023-08-07T00:30:12;15.70;99.90
60860;DHT22;46694;54.382;9.708;2023-08-07T00:32:51;15.80;99.90
60860;DHT22;46694;54.382;9.708;2023-08-07T00:35:31;15.70;99.90
60860;DHT22;46694;54.382;9.708;2023-08-07T00:38:10;15.70;99.90
60860;DHT22;46694;54.382;9.708;2023-08-07T00:40:50;15.60;99.90
60860;DHT22;46694;54.382;9.708;2023-08-07T00:43:29;15.60;99.90
60860;DHT22;46694;54.382;9.708;2023-08-07T00:46:09;15.60;99.90
60860;DHT22;46694;54.382;9.708;2023-08-07T00:48:49;15.60;99.90
60860;DHT22;46694;54.382;9.708;2023-08-07T00:51:30;15.60;99.90
60860;DHT22;46694;54.382;9.708;2023-08-07T00:54:11;15.50;99.90
60860;DHT22;46694;54.382;9.708;2023-08-07T00:56:54;15.50;99.90
60860;DHT22;46694;54.382;9.708;2023-08-07T00:59:33;15.60;99.90
60860;DHT22;46694;54.382;9.708;2023-08-07T01:02:13;15.60;99.90
60860;DHT22;46694;54.382;9.708;2023-08-07T01:04:54;15.60;99.90
60860;DHT22;46694;54.382;9.708;2023-08-07T01:07:36;15.50;99.90
60860;DHT22;46694;54.382;9.708;2023-08-07T01:10:20;15.50;99.90
60860;DHT22;46694;54.382;9.708;2023-08-07T01:13:18;15.50;99.90
60860;DHT22;46694;54.382;9.708;2023-08-07T01:16:13;15.50;99.90
60860;DHT22;46694;54.382;9.708;2023-08-07T01:18:56;15.50;99.90
60860;DHT22;46694;54.382;9.708;2023-08-07T01:21:36;15.50;99.90
60860;DHT22;46694;54.382;9.708;2023-08-07T01:24:16;15.40;99.90
60860;DHT22;46694;54.382;9.708;2023-08-07T01:27:00;15.40;99.90
60860;DHT22;46694;54.382;9.708;2023-08-07T01:33:17;15.40;99.90
60860;DHT22;46694;54.382;9.708;2023-08-07T01:36:05;15.40;99.90
60860;DHT22;46694;54.382;9.708;2023-08-07T01:38:49;15.30;99.90
60860;DHT22;46694;54.382;9.708;2023-08-07T01:41:30;15.30;99.90
60860;DHT22;46694;54.382;9.708;2023-08-07T01:44:10;15.30;99.90
60860;DHT22;46694;54.382;9.708;2023-08-07T01:46:50;15.40;99.90
60860;DHT22;46694;54.382;9.708;2023-08-07T01:49:30;15.30;99.90
60860;DHT22;46694;54.382;9.708;2023-08-07T01:52:10;15.30;99.90
60860;DHT22;46694;54.382;9.708;2023-08-07T01:54:51;15.30;99.90
60860;DHT22;46694;54.382;9.708;2023-08-07T01:57:31;15.30;99.90
60860;DHT22;46694;54.382;9.708;2023-08-07T02:00:11;15.30;99.90
60860;DHT22;46694;54.382;9.708;2023-08-07T02:02:51;15.30;99.90
60860;DHT22;46694;54.382;9.708;2023-08-07T02:05:30;15.30;99.90
60860;DHT22;46694;54.382;9.708;2023-08-07T02:08:10;15.40;99.90
60860;DHT22;46694;54.382;9.708;2023-08-07T02:10:49;15.40;99.90
60860;DHT22;46694;54.382;9.708;2023-08-07T02:13:29;15.40;99.90
60860;DHT22;46694;54.382;9.708;2023-08-07T02:16:08;15.40;99.90
60860;DHT22;46694;54.382;9.708;2023-08-07T02:19:14;15.40;99.90
60860;DHT22;46694;54.382;9.708;2023-08-07T02:21:53;15.40;99.90
60860;DHT22;46694;54.382;9.708;2023-08-07T02:24:33;15.40;99.90
60860;DHT22;46694;54.382;9.708;2023-08-07T02:27:13;15.40;99.90
60860;DHT22;46694;54.382;9.708;2023-08-07T02:29:52;15.40;99.90
60860;DHT22;46694;54.382;9.708;2023-08-07T02:32:33;15.40;99.90
60860;DHT22;46694;54.382;9.708;2023-08-07T02:35:12;15.40;99.90
60860;DHT22;46694;54.382;9.708;2023-08-07T02:37:52;15.40;99.90
60860;DHT22;46694;54.382;9.708;2023-08-07T02:40:32;15.40;99.90
60860;DHT22;46694;54.382;9.708;2023-08-07T02:43:11;15.40;99.90
60860;DHT22;46694;54.382;9.708;2023-08-07T02:45:51;15.40;99.90
60860;DHT22;46694;54.382;9.708;2023-08-07T02:48:30;15.40;99.90
60860;DHT22;46694;54.382;9.708;2023-08-07T02:51:10;15.40;99.90
60860;DHT22;46694;54.382;9.708;2023-08-07T02:53:50;15.40;99.90
60860;DHT22;46694;54.382;9.708;2023-08-07T02:56:30;15.40;99.90
60860;DHT22;46694;54.382;9.708;2023-08-07T02:59:09;15.40;99.90
60860;DHT22;46694;54.382;9.708;2023-08-07T03:01:50;15.40;99.90
60860;DHT22;46694;54.382;9.708;2023-08-07T03:04:30;15.40;99.90
60860;DHT22;46694;54.382;9.708;2023-08-07T03:07:09;15.40;99.90
60860;DHT22;46694;54.382;9.708;2023-08-07T03:09:49;15.40;99.90
60860;DHT22;46694;54.382;9.708;2023-08-07T03:12:29;15.40;99.90
60860;DHT22;46694;54.382;9.708;2023-08-07T03:15:09;15.40;99.90
60860;DHT22;46694;54.382;9.708;2023-08-07T03:17:49;15.40;99.90
60860;DHT22;46694;54.382;9.708;2023-08-07T03:20:28;15.40;99.90
60860;DHT22;46694;54.382;9.708;2023-08-07T03:23:08;15.40;99.90
60860;DHT22;46694;54.382;9.708;2023-08-07T03:25:48;15.40;99.90
60860;DHT22;46694;54.382;9.708;2023-08-07T03:28:27;15.40;99.90
60860;DHT22;46694;54.382;9.708;2023-08-07T03:31:07;15.40;99.90
60860;DHT22;46694;54.382;9.708;2023-08-07T03:33:46;15.40;99.90
60860;DHT22;46694;54.382;9.708;2023-08-07T03:36:26;15.40;99.90
60860;DHT22;46694;54.382;9.708;2023-08-07T03:39:05;15.40;99.90
60860;DHT22;46694;54.382;9.708;2023-08-07T03:41:45;15.40;99.90
60860;DHT22;46694;54.382;9.708;2023-08-07T03:44:24;15.40;99.90
60860;DHT22;46694;54.382;9.708;2023-08-07T03:47:04;15.40;99.90
60860;DHT22;46694;54.382;9.708;2023-08-07T03:49:44;15.40;99.90
60860;DHT22;46694;54.382;9.708;2023-08-07T03:52:23;15.40;99.90
60860;DHT22;46694;54.382;9.708;2023-08-07T03:55:03;15.40;99.90
60860;DHT22;46694;54.382;9.708;2023-08-07T03:57:42;15.40;99.90
60860;DHT22;46694;54.382;9.708;2023-08-07T04:00:22;15.40;99.90
60860;DHT22;46694;54.382;9.708;2023-08-07T04:03:01;15.40;99.90
60860;DHT22;46694;54.382;9.708;2023-08-07T04:05:41;15.50;99.90
60860;DHT22;46694;54.382;9.708;2023-08-07T04:08:21;15.50;99.90
60860;DHT22;46694;54.382;9.708;2023-08-07T04:11:04;15.50;99.90
60860;DHT22;46694;54.382;9.708;2023-08-07T04:13:44;15.50;99.90
60860;DHT22;46694;54.382;9.708;2023-08-07T04:16:24;15.50;99.90
60860;DHT22;46694;54.382;9.708;2023-08-07T04:19:03;15.50;99.90
60860;DHT22;46694;54.382;9.708;2023-08-07T04:21:43;15.50;99.90
60860;DHT22;46694;54.382;9.708;2023-08-07T04:24:23;15.50;99.90
60860;DHT22;46694;54.382;9.708;2023-08-07T04:27:02;15.50;99.90
60860;DHT22;46694;54.382;9.708;2023-08-07T04:29:42;15.60;99.90
60860;DHT22;46694;54.382;9.708;2023-08-07T04:32:22;15.60;99.90
60860;DHT22;46694;54.382;9.708;2023-08-07T04:35:01;15.60;99.90
60860;DHT22;46694;54.382;9.708;2023-08-07T04:37:41;15.60;99.90
60860;DHT22;46694;54.382;9.708;2023-08-07T04:40:21;15.70;99.90
60860;DHT22;46694;54.382;9.708;2023-08-07T04:43:00;15.70;99.90
60860;DHT22;46694;54.382;9.708;2023-08-07T04:45:41;15.70;99.90
60860;DHT22;46694;54.382;9.708;2023-08-07T04:48:20;15.80;99.90
60860;DHT22;46694;54.382;9.708;2023-08-07T04:51:01;15.80;99.90
60860;DHT22;46694;54.382;9.708;2023-08-07T04:53:41;15.90;99.90
60860;DHT22;46694;54.382;9.708;2023-08-07T04:56:21;15.80;99.90
60860;DHT22;46694;54.382;9.708;2023-08-07T04:59:00;15.90;99.90
60860;DHT22;46694;54.382;9.708;2023-08-07T05:01:40;15.90;99.90
60860;DHT22;46694;54.382;9.708;2023-08-07T05:04:20;15.90;99.90
60860;DHT22;46694;54.382;9.708;2023-08-07T05:07:00;16.00;99.90
60860;DHT22;46694;54.382;9.708;2023-08-07T05:09:39;16.00;99.90
60860;DHT22;46694;54.382;9.708;2023-08-07T05:12:19;16.00;99.90
60860;DHT22;46694;54.382;9.708;2023-08-07T05:14:58;16.00;99.90
60860;DHT22;46694;54.382;9.708;2023-08-07T05:17:38;16.00;99.90
60860;DHT22;46694;54.382;9.708;2023-08-07T05:20:17;16.10;99.90
60860;DHT22;46694;54.382;9.708;2023-08-07T05:22:57;16.10;99.90
60860;DHT22;46694;54.382;9.708;2023-08-07T05:25:37;16.10;99.90
60860;DHT22;46694;54.382;9.708;2023-08-07T05:28:17;16.10;99.90
60860;DHT22;46694;54.382;9.708;2023-08-07T05:30:56;16.10;99.90
60860;DHT22;46694;54.382;9.708;2023-08-07T05:33:36;16.10;99.90
60860;DHT22;46694;54.382;9.708;2023-08-07T05:36:16;16.10;99.90
60860;DHT22;46694;54.382;9.708;2023-08-07T05:38:56;16.20;99.90
60860;DHT22;46694;54.382;9.708;2023-08-07T05:41:36;16.20;99.90
60860;DHT22;46694;54.382;9.708;2023-08-07T05:44:17;16.20;99.90
60860;DHT22;46694;54.382;9.708;2023-08-07T05:46:57;16.20;99.90
60860;DHT22;46694;54.382;9.708;2023-08-07T05:49:36;16.20;99.90
60860;DHT22;46694;54.382;9.708;2023-08-07T05:52:17;16.20;99.90
60860;DHT22;46694;54.382;9.708;2023-08-07T05:54:57;16.20;99.90
60860;DHT22;46694;54.382;9.708;2023-08-07T05:57:36;16.20;99.90
60860;DHT22;46694;54.382;9.708;2023-08-07T06:00:16;16.20;99.90
60860;DHT22;46694;54.382;9.708;2023-08-07T06:02:58;16.30;99.90
60860;DHT22;46694;54.382;9.708;2023-08-07T06:05:37;16.30;99.90
60860;DHT22;46694;54.382;9.708;2023-08-07T06:08:17;16.30;99.90
60860;DHT22;46694;54.382;9.708;2023-08-07T06:10:56;16.40;99.90
60860;DHT22;46694;54.382;9.708;2023-08-07T06:13:36;16.40;99.90
60860;DHT22;46694;54.382;9.708;2023-08-07T06:16:15;16.40;99.90
60860;DHT22;46694;54.382;9.708;2023-08-07T06:18:55;16.40;99.90
60860;DHT22;46694;54.382;9.708;2023-08-07T06:21:35;16.50;99.90
60860;DHT22;46694;54.382;9.708;2023-08-07T06:24:15;16.50;99.90
60860;DHT22;46694;54.382;9.708;2023-08-07T06:26:55;16.60;99.90
60860;DHT22;46694;54.382;9.708;2023-08-07T06:32:57;16.60;99.90
60860;DHT22;46694;54.382;9.708;2023-08-07T06:35:40;16.70;99.90
60860;DHT22;46694;54.382;9.708;2023-08-07T06:38:21;16.70;99.90
60860;DHT22;46694;54.382;9.708;2023-08-07T06:41:01;16.80;99.90
60860;DHT22;46694;54.382;9.708;2023-08-07T06:43:40;16.80;99.90
60860;DHT22;46694;54.382;9.708;2023-08-07T06:46:20;16.90;99.90
60860;DHT22;46694;54.382;9.708;2023-08-07T06:49:04;16.90;99.90
60860;DHT22;46694;54.382;9.708;2023-08-07T06:51:43;17.00;99.90
60860;DHT22;46694;54.382;9.708;2023-08-07T06:54:23;17.00;99.90
60860;DHT22;46694;54.382;9.708;2023-08-07T06:57:03;17.10;99.90
60860;DHT22;46694;54.382;9.708;2023-08-07T06:59:42;17.20;99.90
60860;DHT22;46694;54.382;9.708;2023-08-07T07:02:22;17.30;99.90
60860;DHT22;46694;54.382;9.708;2023-08-07T07:05:02;17.40;99.90
60860;DHT22;46694;54.382;9.708;2023-08-07T07:08:00;17.40;99.90
60860;DHT22;46694;54.382;9.708;2023-08-07T07:10:39;17.40;99.90
60860;DHT22;46694;54.382;9.708;2023-08-07T07:13:19;17.50;99.90
60860;DHT22;46694;54.382;9.708;2023-08-07T07:15:58;17.60;99.90
60860;DHT22;46694;54.382;9.708;2023-08-07T07:18:38;17.70;99.90
60860;DHT22;46694;54.382;9.708;2023-08-07T07:21:18;17.70;99.90
60860;DHT22;46694;54.382;9.708;2023-08-07T07:23:58;17.70;99.90
60860;DHT22;46694;54.382;9.708;2023-08-07T07:26:37;17.70;99.90
60860;DHT22;46694;54.382;9.708;2023-08-07T07:29:17;17.60;99.90
60860;DHT22;46694;54.382;9.708;2023-08-07T07:31:57;17.60;99.90
60860;DHT22;46694;54.382;9.708;2023-08-07T07:34:37;17.60;99.90
60860;DHT22;46694;54.382;9.708;2023-08-07T07:37:16;17.50;99.90
60860;DHT22;46694;54.382;9.708;2023-08-07T07:39:56;17.50;99.90
60860;DHT22;46694;54.382;9.708;2023-08-07T07:42:36;17.50;99.90
60860;DHT22;46694;54.382;9.708;2023-08-07T07:45:15;17.50;99.90
60860;DHT22;46694;54.382;9.708;2023-08-07T07:47:55;17.50;99.90
60860;DHT22;46694;54.382;9.708;2023-08-07T07:50:35;17.60;99.90
60860;DHT22;46694;54.382;9.708;2023-08-07T07:53:44;17.70;99.90
60860;DHT22;46694;54.382;9.708;2023-08-07T07:56:24;17.90;99.90
60860;DHT22;46694;54.382;9.708;2023-08-07T07:59:03;18.00;99.90
60860;DHT22;46694;54.382;9.708;2023-08-07T08:01:43;18.20;99.90
60860;DHT22;46694;54.382;9.708;2023-08-07T08:04:23;18.40;99.90
60860;DHT22;46694;54.382;9.708;2023-08-07T08:07:02;18.50;99.90
60860;DHT22;46694;54.382;9.708;2023-08-07T08:09:42;18.50;99.90
60860;DHT22;46694;54.382;9.708;2023-08-07T08:12:22;18.40;99.90
60860;DHT22;46694;54.382;9.708;2023-08-07T08:15:02;18.30;99.90
60860;DHT22;46694;54.382;9.708;2023-08-07T08:17:42;18.20;99.90
60860;DHT22;46694;54.382;9.708;2023-08-07T08:20:22;18.20;99.90
60860;DHT22;46694;54.382;9.708;2023-08-07T08:23:02;18.20;99.90
60860;DHT22;46694;54.382;9.708;2023-08-07T08:25:41;18.20;99.90
60860;DHT22;46694;54.382;9.708;2023-08-07T08:28:21;18.30;99.90
60860;DHT22;46694;54.382;9.708;2023-08-07T08:31:01;18.30;99.90
60860;DHT22;46694;54.382;9.708;2023-08-07T08:33:40;18.30;99.90
60860;DHT22;46694;54.382;9.708;2023-08-07T08:36:19;18.40;99.90
60860;DHT22;46694;54.382;9.708;2023-08-07T08:38:59;18.60;99.90
60860;DHT22;46694;54.382;9.708;2023-08-07T08:41:39;18.80;99.90
60860;DHT22;46694;54.382;9.708;2023-08-07T08:44:22;18.90;99.90
60860;DHT22;46694;54.382;9.708;2023-08-07T08:47:03;19.00;99.90
60860;DHT22;46694;54.382;9.708;2023-08-07T08:49:50;19.00;99.90
60860;DHT22;46694;54.382;9.708;2023-08-07T08:52:40;19.00;99.90
60860;DHT22;46694;54.382;9.708;2023-08-07T08:55:22;19.00;99.90
60860;DHT22;46694;54.382;9.708;2023-08-07T08:58:03;19.00;99.90
60860;DHT22;46694;54.382;9.708;2023-08-07T09:00:43;18.80;99.90
60860;DHT22;46694;54.382;9.708;2023-08-07T09:03:24;18.50;99.90
60860;DHT22;46694;54.382;9.708;2023-08-07T09:06:03;18.30;99.90
60860;DHT22;46694;54.382;9.708;2023-08-07T09:08:46;18.20;99.90
60860;DHT22;46694;54.382;9.708;2023-08-07T09:11:26;18.00;99.90
60860;DHT22;46694;54.382;9.708;2023-08-07T09:14:07;17.90;99.90
60860;DHT22;46694;54.382;9.708;2023-08-07T09:16:48;18.00;99.90
60860;DHT22;46694;54.382;9.708;2023-08-07T09:19:29;18.00;99.90
60860;DHT22;46694;54.382;9.708;2023-08-07T09:22:09;18.10;99.90
60860;DHT22;46694;54.382;9.708;2023-08-07T09:24:49;18.40;99.90
60860;DHT22;46694;54.382;9.708;2023-08-07T09:27:31;18.50;99.90
60860;DHT22;46694;54.382;9.708;2023-08-07T09:30:11;18.50;99.90
60860;DHT22;46694;54.382;9.708;2023-08-07T09:32:50;18.40;99.90
60860;DHT22;46694;54.382;9.708;2023-08-07T09:35:30;18.10;99.90
60860;DHT22;46694;54.382;9.708;2023-08-07T09:38:11;17.80;99.90
60860;DHT22;46694;54.382;9.708;2023-08-07T09:40:50;17.60;99.90
60860;DHT22;46694;54.382;9.708;2023-08-07T09:43:36;17.60;99.90
60860;DHT22;46694;54.382;9.708;2023-08-07T09:46:17;17.70;99.90
60860;DHT22;46694;54.382;9.708;2023-08-07T09:48:58;17.80;99.90
60860;DHT22;46694;54.382;9.708;2023-08-07T09:51:46;17.90;99.90
60860;DHT22;46694;54.382;9.708;2023-08-07T09:54:26;17.90;99.90
60860;DHT22;46694;54.382;9.708;2023-08-07T09:57:06;18.10;99.90
60860;DHT22;46694;54.382;9.708;2023-08-07T09:59:49;18.20;99.90
60860;DHT22;46694;54.382;9.708;2023-08-07T10:02:29;18.50;99.90
60860;DHT22;46694;54.382;9.708;2023-08-07T10:05:17;18.80;99.90
60860;DHT22;46694;54.382;9.708;2023-08-07T10:07:57;18.90;99.90
60860;DHT22;46694;54.382;9.708;2023-08-07T10:10:38;19.00;99.90
60860;DHT22;46694;54.382;9.708;2023-08-07T10:13:18;18.90;99.90
60860;DHT22;46694;54.382;9.708;2023-08-07T10:16:00;18.80;99.90
60860;DHT22;46694;54.382;9.708;2023-08-07T10:18:40;18.90;99.90
60860;DHT22;46694;54.382;9.708;2023-08-07T10:21:20;19.00;99.90
60860;DHT22;46694;54.382;9.708;2023-08-07T10:24:03;18.90;99.90
60860;DHT22;46694;54.382;9.708;2023-08-07T10:26:44;18.70;99.90
60860;DHT22;46694;54.382;9.708;2023-08-07T10:29:26;18.60;99.90
60860;DHT22;46694;54.382;9.708;2023-08-07T10:32:07;18.70;99.90
60860;DHT22;46694;54.382;9.708;2023-08-07T10:34:50;18.70;99.90
60860;DHT22;46694;54.382;9.708;2023-08-07T10:40:19;19.00;99.90
60860;DHT22;46694;54.382;9.708;2023-08-07T10:43:12;19.10;99.90
60860;DHT22;46694;54.382;9.708;2023-08-07T10:46:02;19.30;99.90
60860;DHT22;46694;54.382;9.708;2023-08-07T10:48:45;19.30;99.90
60860;DHT22;46694;54.382;9.708;2023-08-07T10:51:31;19.50;99.90
60860;DHT22;46694;54.382;9.708;2023-08-07T10:54:11;19.50;99.90
60860;DHT22;46694;54.382;9.708;2023-08-07T10:57:18;19.30;99.90
60860;DHT22;46694;54.382;9.708;2023-08-07T11:02:41;19.00;99.90
60860;DHT22;46694;54.382;9.708;2023-08-07T11:05:23;19.20;99.90
60860;DHT22;46694;54.382;9.708;2023-08-07T11:08:03;19.40;99.90
60860;DHT22;46694;54.382;9.708;2023-08-07T11:10:42;19.50;99.90
60860;DHT22;46694;54.382;9.708;2023-08-07T11:13:22;19.50;99.90
60860;DHT22;46694;54.382;9.708;2023-08-07T11:16:02;19.60;99.90
60860;DHT22;46694;54.382;9.708;2023-08-07T11:18:42;19.50;99.90
60860;DHT22;46694;54.382;9.708;2023-08-07T11:21:24;19.50;99.90
60860;DHT22;46694;54.382;9.708;2023-08-07T11:24:04;19.60;99.90
60860;DHT22;46694;54.382;9.708;2023-08-07T11:26:45;19.80;99.90
60860;DHT22;46694;54.382;9.708;2023-08-07T11:29:25;20.00;99.90
60860;DHT22;46694;54.382;9.708;2023-08-07T11:32:05;20.10;99.90
60860;DHT22;46694;54.382;9.708;2023-08-07T11:34:49;20.20;99.90
60860;DHT22;46694;54.382;9.708;2023-08-07T11:37:30;20.40;99.90
60860;DHT22;46694;54.382;9.708;2023-08-07T11:40:09;20.30;99.90
60860;DHT22;46694;54.382;9.708;2023-08-07T11:42:51;20.10;99.90
60860;DHT22;46694;54.382;9.708;2023-08-07T11:45:31;20.00;99.90
60860;DHT22;46694;54.382;9.708;2023-08-07T11:48:12;19.80;99.90
60860;DHT22;46694;54.382;9.708;2023-08-07T11:50:53;19.80;99.90
60860;DHT22;46694;54.382;9.708;2023-08-07T11:53:36;20.00;99.90
60860;DHT22;46694;54.382;9.708;2023-08-07T11:56:16;20.00;99.90
60860;DHT22;46694;54.382;9.708;2023-08-07T11:58:57;19.90;99.90
60860;DHT22;46694;54.382;9.708;2023-08-07T12:01:38;19.70;99.90
60860;DHT22;46694;54.382;9.708;2023-08-07T12:04:19;19.60;99.90
60860;DHT22;46694;54.382;9.708;2023-08-07T12:10:25;19.80;99.90
60860;DHT22;46694;54.382;9.708;2023-08-07T12:13:08;19.90;99.90
60860;DHT22;46694;54.382;9.708;2023-08-07T12:15:53;20.00;99.90
60860;DHT22;46694;54.382;9.708;2023-08-07T12:18:34;20.10;99.90
60860;DHT22;46694;54.382;9.708;2023-08-07T12:21:17;20.30;99.90
60860;DHT22;46694;54.382;9.708;2023-08-07T12:24:02;20.20;99.90
60860;DHT22;46694;54.382;9.708;2023-08-07T12:26:41;20.10;99.90
60860;DHT22;46694;54.382;9.708;2023-08-07T12:29:21;20.00;99.90
60860;DHT22;46694;54.382;9.708;2023-08-07T12:32:00;19.80;99.90
60860;DHT22;46694;54.382;9.708;2023-08-07T12:34:42;19.60;99.90
60860;DHT22;46694;54.382;9.708;2023-08-07T12:37:21;19.40;99.90
60860;DHT22;46694;54.382;9.708;2023-08-07T12:40:02;19.10;99.90
60860;DHT22;46694;54.382;9.708;2023-08-07T12:42:43;18.90;99.90
60860;DHT22;46694;54.382;9.708;2023-08-07T12:45:23;18.90;99.90
60860;DHT22;46694;54.382;9.708;2023-08-07T12:48:02;18.80;99.90
60860;DHT22;46694;54.382;9.708;2023-08-07T12:50:42;18.60;99.90
60860;DHT22;46694;54.382;9.708;2023-08-07T12:53:23;18.20;99.90
60860;DHT22;46694;54.382;9.708;2023-08-07T12:56:02;18.00;99.90
60860;DHT22;46694;54.382;9.708;2023-08-07T12:58:43;17.90;99.90
60860;DHT22;46694;54.382;9.708;2023-08-07T13:01:24;17.80;99.90
60860;DHT22;46694;54.382;9.708;2023-08-07T13:04:06;17.80;99.90
60860;DHT22;46694;54.382;9.708;2023-08-07T13:06:47;17.60;99.90
60860;DHT22;46694;54.382;9.708;2023-08-07T13:09:28;17.30;99.90
60860;DHT22;46694;54.382;9.708;2023-08-07T13:12:09;17.20;99.90
60860;DHT22;46694;54.382;9.708;2023-08-07T13:14:50;17.20;99.90
60860;DHT22;46694;54.382;9.708;2023-08-07T13:17:44;17.30;99.90
60860;DHT22;46694;54.382;9.708;2023-08-07T13:20:23;17.50;99.90
60860;DHT22;46694;54.382;9.708;2023-08-07T13:23:05;17.60;99.90
60860;DHT22;46694;54.382;9.708;2023-08-07T13:25:45;17.70;99.90
60860;DHT22;46694;54.382;9.708;2023-08-07T13:28:51;17.70;99.90
60860;DHT22;46694;54.382;9.708;2023-08-07T13:31:30;17.70;99.90
60860;DHT22;46694;54.382;9.708;2023-08-07T13:34:10;17.80;99.90
60860;DHT22;46694;54.382;9.708;2023-08-07T13:36:50;17.90;99.90
60860;DHT22;46694;54.382;9.708;2023-08-07T13:39:30;17.90;99.90
60860;DHT22;46694;54.382;9.708;2023-08-07T13:42:09;18.00;99.90
60860;DHT22;46694;54.382;9.708;2023-08-07T13:44:49;18.10;99.90
60860;DHT22;46694;54.382;9.708;2023-08-07T13:47:29;18.20;99.90
60860;DHT22;46694;54.382;9.708;2023-08-07T13:50:09;18.40;99.90
60860;DHT22;46694;54.382;9.708;2023-08-07T13:52:51;18.40;99.90
60860;DHT22;46694;54.382;9.708;2023-08-07T13:55:31;18.50;99.90
60860;DHT22;46694;54.382;9.708;2023-08-07T13:58:10;18.60;99.90
60860;DHT22;46694;54.382;9.708;2023-08-07T14:00:50;18.60;99.90
60860;DHT22;46694;54.382;9.708;2023-08-07T14:03:30;18.80;99.90
60860;DHT22;46694;54.382;9.708;2023-08-07T14:06:10;19.00;99.90
60860;DHT22;46694;54.382;9.708;2023-08-07T14:08:49;18.90;99.90
60860;DHT22;46694;54.382;9.708;2023-08-07T14:11:29;18.80;99.90
60860;DHT22;46694;54.382;9.708;2023-08-07T14:14:11;18.70;99.90
60860;DHT22;46694;54.382;9.708;2023-08-07T14:16:51;18.50;99.90
60860;DHT22;46694;54.382;9.708;2023-08-07T14:19:33;18.40;99.90
60860;DHT22;46694;54.382;9.708;2023-08-07T14:22:13;18.40;99.90
60860;DHT22;46694;54.382;9.708;2023-08-07T14:24:52;18.50;99.90
60860;DHT22;46694;54.382;9.708;2023-08-07T14:27:32;18.50;99.90
60860;DHT22;46694;54.382;9.708;2023-08-07T14:30:13;18.50;99.90
60860;DHT22;46694;54.382;9.708;2023-08-07T14:32:52;18.40;99.90
60860;DHT22;46694;54.382;9.708;2023-08-07T14:35:31;18.30;99.90
60860;DHT22;46694;54.382;9.708;2023-08-07T14:38:11;18.20;99.90
60860;DHT22;46694;54.382;9.708;2023-08-07T14:40:50;18.20;99.90
60860;DHT22;46694;54.382;9.708;2023-08-07T14:43:30;18.20;99.90
60860;DHT22;46694;54.382;9.708;2023-08-07T14:46:10;18.30;99.90
60860;DHT22;46694;54.382;9.708;2023-08-07T14:48:49;18.20;99.90
60860;DHT22;46694;54.382;9.708;2023-08-07T14:51:29;18.10;99.90
60860;DHT22;46694;54.382;9.708;2023-08-07T14:54:08;17.90;99.90
60860;DHT22;46694;54.382;9.708;2023-08-07T14:56:48;17.80;99.90
60860;DHT22;46694;54.382;9.708;2023-08-07T14:59:28;17.80;99.90
60860;DHT22;46694;54.382;9.708;2023-08-07T15:02:07;17.80;99.90
60860;DHT22;46694;54.382;9.708;2023-08-07T15:04:47;17.80;99.90
60860;DHT22;46694;54.382;9.708;2023-08-07T15:07:26;17.80;99.90
60860;DHT22;46694;54.382;9.708;2023-08-07T15:10:08;17.70;99.90
60860;DHT22;46694;54.382;9.708;2023-08-07T15:12:47;17.70;99.90
60860;DHT22;46694;54.382;9.708;2023-08-07T15:15:27;17.60;99.90
60860;DHT22;46694;54.382;9.708;2023-08-07T15:18:06;17.60;99.90
60860;DHT22;46694;54.382;9.708;2023-08-07T15:20:49;17.60;99.90
60860;DHT22;46694;54.382;9.708;2023-08-07T15:23:28;17.70;99.90
60860;DHT22;46694;54.382;9.708;2023-08-07T15:26:08;17.70;99.90
60860;DHT22;46694;54.382;9.708;2023-08-07T15:28:47;17.80;99.90
60860;DHT22;46694;54.382;9.708;2023-08-07T15:31:27;17.80;99.90
60860;DHT22;46694;54.382;9.708;2023-08-07T15:34:07;17.80;99.90
60860;DHT22;46694;54.382;9.708;2023-08-07T15:36:46;17.70;99.90
60860;DHT22;46694;54.382;9.708;2023-08-07T15:39:26;17.60;99.90
60860;DHT22;46694;54.382;9.708;2023-08-07T15:42:05;17.50;99.90
60860;DHT22;46694;54.382;9.708;2023-08-07T15:44:45;17.30;99.90
60860;DHT22;46694;54.382;9.708;2023-08-07T15:47:25;17.10;99.90
60860;DHT22;46694;54.382;9.708;2023-08-07T15:50:05;17.10;99.90
60860;DHT22;46694;54.382;9.708;2023-08-07T15:52:45;17.20;99.90
60860;DHT22;46694;54.382;9.708;2023-08-07T15:55:25;17.10;99.90
60860;DHT22;46694;54.382;9.708;2023-08-07T15:58:05;17.10;99.90
60860;DHT22;46694;54.382;9.708;2023-08-07T16:00:45;17.10;99.90
60860;DHT22;46694;54.382;9.708;2023-08-07T16:03:24;17.00;99.90
60860;DHT22;46694;54.382;9.708;2023-08-07T16:06:04;16.90;99.90
60860;DHT22;46694;54.382;9.708;2023-08-07T16:08:43;16.90;99.90
60860;DHT22;46694;54.382;9.708;2023-08-07T16:11:23;16.80;99.90
60860;DHT22;46694;54.382;9.708;2023-08-07T16:14:02;16.80;99.90
60860;DHT22;46694;54.382;9.708;2023-08-07T16:16:42;16.80;99.90
60860;DHT22;46694;54.382;9.708;2023-08-07T16:19:22;16.80;99.90
60860;DHT22;46694;54.382;9.708;2023-08-07T16:22:01;16.80;99.90
60860;DHT22;46694;54.382;9.708;2023-08-07T16:24:41;16.80;99.90
60860;DHT22;46694;54.382;9.708;2023-08-07T16:27:20;16.80;99.90
60860;DHT22;46694;54.382;9.708;2023-08-07T16:30:03;16.80;99.90
60860;DHT22;46694;54.382;9.708;2023-08-07T16:32:43;16.80;99.90
60860;DHT22;46694;54.382;9.708;2023-08-07T16:35:24;16.80;99.90
60860;DHT22;46694;54.382;9.708;2023-08-07T16:38:04;16.90;99.90
60860;DHT22;46694;54.382;9.708;2023-08-07T16:40:44;16.90;99.90
60860;DHT22;46694;54.382;9.708;2023-08-07T16:46:31;17.00;99.90
60860;DHT22;46694;54.382;9.708;2023-08-07T16:49:11;17.10;99.90
60860;DHT22;46694;54.382;9.708;2023-08-07T16:51:50;17.30;99.90
60860;DHT22;46694;54.382;9.708;2023-08-07T16:54:34;17.40;99.90
60860;DHT22;46694;54.382;9.708;2023-08-07T16:57:14;17.40;99.90
60860;DHT22;46694;54.382;9.708;2023-08-07T16:59:53;17.30;99.90
60860;DHT22;46694;54.382;9.708;2023-08-07T17:02:33;17.30;99.90
60860;DHT22;46694;54.382;9.708;2023-08-07T17:05:12;17.30;99.90
60860;DHT22;46694;54.382;9.708;2023-08-07T17:07:52;17.30;99.90
60860;DHT22;46694;54.382;9.708;2023-08-07T17:10:32;17.30;99.90
60860;DHT22;46694;54.382;9.708;2023-08-07T17:13:11;17.30;99.90